الصفحة الرئيسية
METAR-TAF:

METAR-TAF

مطار :

مطار توات - شيخ سيدي محمد بلكبير

أدرار, الجزائر

دائرة عرض: 27-53N, خط طول: 000-17W, ارتفاع: 263 متر

مراقبة الطقس الحالي

تاريخ ووقت الإصدار 57 دقيقة قبل الساعة 19:00UTC
ريح 10 عقدة من الشمال/الشمال الشرقي
درجة الحرارة 17°درجة مئوية
الرطوبة 34%
ضغط 1024 hPa
الرؤية 10 كم أو أكثر
الغيوم لا تقل 1500 م ولا وجود لمزنة ركامية السحاب الأسود

METAR: DAUA 091900Z 02010KT CAVOK 17/01 Q1024

زمن: 20:57 (19:57 UTC)

توقعات

تاريخ ووقت الإصدار 2ساعات و 57 دقيقة قبل الساعة 17:00UTC
التوقعات صالحة من09 الساعة 18 UTC إلى 10 الساعة 18 UTC
ريح 12 عقدة من الشمال/الشمال الشرقي
الرؤية 10 كم أو أكثر
الغيوم لا تقل 1500 م ولا وجود لمزنة ركامية السحاب الأسود

TAF: DAUA 091700Z 0918/1018 02012KT CAVOK

أرصاد الطقس والتوقعات من أكثر من 4000 مطار (تقارير الطقس للمطار METAR والتنبؤ بالطقس بالمطارTAF).

المحطات المتاحة هي النقط الصفراء والحمراء على الخريطة.

حرك المؤشر فوق النقطة لمعرفة اسم المحطة.

ثم انقر لمعرفة أرصاد وتوقعات الطقس.

لتغيير الخارطة: اضغط على الأزرار الخضراء مع رمز الصليب الأسود للتكبير. على الزر الأخضر مع شرطة للتصغير، أو على الأسهم الخضراء للخرائط المجاورة.


METAR-TAF: